Golfinho L3 — CRA7068 — position and weather

sailwx.info

Track history (hours):
 
Tides and Currents Weather Stations Pressure Air Temp Water Temp Dewpoint Dewpoint Depression Visibility Wind Speed Wind Dir Waves Ship Positions

Golfinho L3

Last reported at 2018-Feb-25 13:30 UTC. Time now 2018-Feb-25 13:44 UTC.
Position N 38°41' W 009°13'.

Length 15 m.

Type: Sailing vessel. MMSI: 263958772.

Date/timePositionNaut miles runAvg speedWind from/ knotsBaromVisibWave heightAir tempDewpointWater temp
2018-Feb-25 13:30N 38°41' W 009°13'1 1.8
2018-Feb-25 12:58N 38°41' W 009°15'1 2.7
2018-Feb-25 12:29N 38°41' W 009°16'2 3.8
2018-Feb-25 12:00N 38°41' W 009°19'3 5.1
2018-Feb-25 11:30N 38°41' W 009°15'3 5.3
2018-Feb-25 11:00N 38°41' W 009°12'2 0.4
2018-Feb-25 07:04N 38°42' W 009°10'0 0.0
2018-Feb-25 06:57N 38°42' W 009°10'0 0.0
2018-Feb-25 06:10N 38°42' W 009°10'0 0.0
2018-Feb-25 05:51N 38°42' W 009°10'0 0.0
2018-Feb-25 04:39N 38°42' W 009°10'0 0.0
2018-Feb-25 04:27N 38°42' W 009°10'0 0.0
2018-Feb-25 03:57N 38°42' W 009°10'0 0.0
2018-Feb-25 02:33N 38°42' W 009°10'0 0.0
2018-Feb-25 00:46N 38°42' W 009°10'0 0.0
2018-Feb-25 00:16N 38°42' W 009°10'0 0.0
2018-Feb-24 05:21N 38°42' W 009°10'0 0.0
2018-Feb-23 21:52N 38°42' W 009°10'0 0.0
2018-Feb-23 07:39N 38°42' W 009°10'0 0.0
2018-Feb-23 07:27N 38°42' W 009°10'  
2018-Feb-18 09:51N 38°42' W 009°10'0 0.0
2018-Feb-18 05:21N 38°42' W 009°10'0 0.0
2018-Feb-18 04:15N 38°42' W 009°10'0 0.0
2018-Feb-18 03:57N 38°42' W 009°10'0 0.0
2018-Feb-18 02:33N 38°42' W 009°10'0 0.0
2018-Feb-18 02:27N 38°42' W 009°10'0 0.0
2018-Feb-17 18:55N 38°42' W 009°10'0 0.0
2018-Feb-17 14:48N 38°42' W 009°10'0 0.0
2018-Feb-17 11:42N 38°42' W 009°10'0 0.0
2018-Feb-17 11:24N 38°42' W 009°10'0 0.0
2018-Feb-17 10:48N 38°42' W 009°10'0 0.0
2018-Feb-17 10:24N 38°42' W 009°10'0 0.0
2018-Feb-17 09:54N 38°42' W 009°10'0 0.0
2018-Feb-17 09:30N 38°42' W 009°10'0 0.0
2018-Feb-17 08:36N 38°42' W 009°10'0 0.0
2018-Feb-17 08:30N 38°42' W 009°10'0 0.0
2018-Feb-17 06:54N 38°42' W 009°10'0 0.0
2018-Feb-17 06:24N 38°42' W 009°10'0 0.0
2018-Feb-17 05:54N 38°42' W 009°10'0 0.0
2018-Feb-17 05:18N 38°42' W 009°10'0 0.0
2018-Feb-17 02:18N 38°42' W 009°10'0 0.0
2018-Feb-16 10:05N 38°42' W 009°10'0 0.0
2018-Feb-16 07:17N 38°42' W 009°10'0 0.0
2018-Feb-16 01:47N 38°42' W 009°10'0 0.0
2018-Feb-16 01:29N 38°42' W 009°10'  
Track history (hours):
 
Tides and Currents Weather Stations Pressure Air Temp Water Temp Dewpoint Dewpoint Depression Visibility Wind Speed Wind Dir Waves Ship Positions

Golfinho L3

Last reported at 2018-Feb-25 13:30 UTC. Time now 2018-Feb-25 13:44 UTC.
Position N 38°41' W 009°13'.

Length 15 m.

Type: Sailing vessel. MMSI: 263958772.

Date/timePositionNaut miles runAvg speedWind from/ knotsBaromVisibWave heightAir tempDewpointWater temp
2018-Feb-25 13:30N 38°41' W 009°13'1 1.8
2018-Feb-25 12:58N 38°41' W 009°15'1 2.7
2018-Feb-25 12:29N 38°41' W 009°16'2 3.8
2018-Feb-25 12:00N 38°41' W 009°19'3 5.1
2018-Feb-25 11:30N 38°41' W 009°15'3 5.3
2018-Feb-25 11:00N 38°41' W 009°12'2 0.4
2018-Feb-25 07:04N 38°42' W 009°10'0 0.0
2018-Feb-25 06:57N 38°42' W 009°10'0 0.0
2018-Feb-25 06:10N 38°42' W 009°10'0 0.0
2018-Feb-25 05:51N 38°42' W 009°10'0 0.0
2018-Feb-25 04:39N 38°42' W 009°10'0 0.0
2018-Feb-25 04:27N 38°42' W 009°10'0 0.0
2018-Feb-25 03:57N 38°42' W 009°10'0 0.0
2018-Feb-25 02:33N 38°42' W 009°10'0 0.0
2018-Feb-25 00:46N 38°42' W 009°10'0 0.0
2018-Feb-25 00:16N 38°42' W 009°10'0 0.0
2018-Feb-24 05:21N 38°42' W 009°10'0 0.0
2018-Feb-23 21:52N 38°42' W 009°10'0 0.0
2018-Feb-23 07:39N 38°42' W 009°10'0 0.0
2018-Feb-23 07:27N 38°42' W 009°10'  
2018-Feb-18 09:51N 38°42' W 009°10'0 0.0
2018-Feb-18 05:21N 38°42' W 009°10'0 0.0
2018-Feb-18 04:15N 38°42' W 009°10'0 0.0
2018-Feb-18 03:57N 38°42' W 009°10'0 0.0
2018-Feb-18 02:33N 38°42' W 009°10'0 0.0
2018-Feb-18 02:27N 38°42' W 009°10'0 0.0
2018-Feb-17 18:55N 38°42' W 009°10'0 0.0
2018-Feb-17 14:48N 38°42' W 009°10'0 0.0
2018-Feb-17 11:42N 38°42' W 009°10'0 0.0
2018-Feb-17 11:24N 38°42' W 009°10'0 0.0
2018-Feb-17 10:48N 38°42' W 009°10'0 0.0
2018-Feb-17 10:24N 38°42' W 009°10'0 0.0
2018-Feb-17 09:54N 38°42' W 009°10'0 0.0
2018-Feb-17 09:30N 38°42' W 009°10'0 0.0
2018-Feb-17 08:36N 38°42' W 009°10'0 0.0
2018-Feb-17 08:30N 38°42' W 009°10'0 0.0
2018-Feb-17 06:54N 38°42' W 009°10'0 0.0
2018-Feb-17 06:24N 38°42' W 009°10'0 0.0
2018-Feb-17 05:54N 38°42' W 009°10'0 0.0
2018-Feb-17 05:18N 38°42' W 009°10'0 0.0
2018-Feb-17 02:18N 38°42' W 009°10'0 0.0
2018-Feb-16 10:05N 38°42' W 009°10'0 0.0
2018-Feb-16 07:17N 38°42' W 009°10'0 0.0
2018-Feb-16 01:47N 38°42' W 009°10'0 0.0
2018-Feb-16 01:29N 38°42' W 009°10'  

Dump ship's entire track history